sensor_id;sensor_type;location;lat;lon;timestamp;P1;durP1;ratioP1;P2;durP2;ratioP2
69511;SDS011;56709;52.036;4.644;2022-08-19T00:01:21;15.38;;;11.10;;
69511;SDS011;56709;52.036;4.644;2022-08-19T00:03:47;13.02;;;9.27;;
69511;SDS011;56709;52.036;4.644;2022-08-19T00:06:13;19.30;;;11.23;;
69511;SDS011;56709;52.036;4.644;2022-08-19T00:08:39;17.20;;;11.27;;
69511;SDS011;56709;52.036;4.644;2022-08-19T00:11:04;22.92;;;12.38;;
69511;SDS011;56709;52.036;4.644;2022-08-19T00:13:30;20.42;;;11.05;;
69511;SDS011;56709;52.036;4.644;2022-08-19T00:15:56;18.20;;;11.57;;
69511;SDS011;56709;52.036;4.644;2022-08-19T00:18:23;18.50;;;11.32;;
69511;SDS011;56709;52.036;4.644;2022-08-19T00:20:49;22.95;;;13.48;;
69511;SDS011;56709;52.036;4.644;2022-08-19T00:23:14;25.25;;;14.35;;
69511;SDS011;56709;52.036;4.644;2022-08-19T00:25:40;26.55;;;14.65;;
69511;SDS011;56709;52.036;4.644;2022-08-19T00:28:06;23.70;;;13.48;;
69511;SDS011;56709;52.036;4.644;2022-08-19T00:30:31;23.33;;;12.90;;
69511;SDS011;56709;52.036;4.644;2022-08-19T00:32:57;20.33;;;13.27;;
69511;SDS011;56709;52.036;4.644;2022-08-19T00:35:23;24.17;;;12.35;;
69511;SDS011;56709;52.036;4.644;2022-08-19T00:37:49;23.80;;;13.82;;
69511;SDS011;56709;52.036;4.644;2022-08-19T00:40:15;23.73;;;14.38;;
69511;SDS011;56709;52.036;4.644;2022-08-19T00:42:43;20.40;;;12.57;;
69511;SDS011;56709;52.036;4.644;2022-08-19T00:45:14;19.13;;;13.07;;
69511;SDS011;56709;52.036;4.644;2022-08-19T00:47:42;19.65;;;12.20;;
69511;SDS011;56709;52.036;4.644;2022-08-19T00:50:08;24.87;;;13.20;;
69511;SDS011;56709;52.036;4.644;2022-08-19T00:52:36;23.70;;;13.10;;
69511;SDS011;56709;52.036;4.644;2022-08-19T00:55:05;24.73;;;13.52;;
69511;SDS011;56709;52.036;4.644;2022-08-19T00:57:36;19.60;;;11.60;;
69511;SDS011;56709;52.036;4.644;2022-08-19T01:00:08;19.27;;;12.18;;
69511;SDS011;56709;52.036;4.644;2022-08-19T01:02:37;24.95;;;14.00;;
69511;SDS011;56709;52.036;4.644;2022-08-19T01:05:04;22.90;;;12.90;;
69511;SDS011;56709;52.036;4.644;2022-08-19T01:07:32;26.08;;;14.30;;
69511;SDS011;56709;52.036;4.644;2022-08-19T01:09:59;24.02;;;12.98;;
69511;SDS011;56709;52.036;4.644;2022-08-19T01:12:24;22.25;;;12.80;;
69511;SDS011;56709;52.036;4.644;2022-08-19T01:14:50;23.33;;;12.88;;
69511;SDS011;56709;52.036;4.644;2022-08-19T01:17:16;23.40;;;13.50;;
69511;SDS011;56709;52.036;4.644;2022-08-19T01:19:42;25.90;;;14.55;;
69511;SDS011;56709;52.036;4.644;2022-08-19T01:24:38;23.30;;;14.13;;
69511;SDS011;56709;52.036;4.644;2022-08-19T01:27:04;26.77;;;12.85;;
69511;SDS011;56709;52.036;4.644;2022-08-19T01:29:30;18.48;;;12.75;;
69511;SDS011;56709;52.036;4.644;2022-08-19T01:31:56;23.35;;;13.43;;
69511;SDS011;56709;52.036;4.644;2022-08-19T01:34:22;29.77;;;14.27;;
69511;SDS011;56709;52.036;4.644;2022-08-19T01:36:48;22.55;;;13.75;;
69511;SDS011;56709;52.036;4.644;2022-08-19T01:39:21;20.73;;;12.10;;
69511;SDS011;56709;52.036;4.644;2022-08-19T01:41:48;25.52;;;13.75;;
69511;SDS011;56709;52.036;4.644;2022-08-19T01:44:14;24.33;;;13.30;;
69511;SDS011;56709;52.036;4.644;2022-08-19T01:46:41;17.52;;;12.20;;
69511;SDS011;56709;52.036;4.644;2022-08-19T01:49:08;23.55;;;13.57;;
69511;SDS011;56709;52.036;4.644;2022-08-19T01:51:35;24.60;;;12.67;;
69511;SDS011;56709;52.036;4.644;2022-08-19T01:54:00;23.50;;;13.48;;
69511;SDS011;56709;52.036;4.644;2022-08-19T01:56:26;18.50;;;12.23;;
69511;SDS011;56709;52.036;4.644;2022-08-19T01:58:55;29.67;;;13.30;;
69511;SDS011;56709;52.036;4.644;2022-08-19T02:01:23;24.33;;;14.43;;
69511;SDS011;56709;52.036;4.644;2022-08-19T02:03:48;23.30;;;15.05;;
69511;SDS011;56709;52.036;4.644;2022-08-19T02:06:14;29.05;;;15.75;;
69511;SDS011;56709;52.036;4.644;2022-08-19T02:08:42;29.70;;;16.38;;
69511;SDS011;56709;52.036;4.644;2022-08-19T02:11:10;35.40;;;17.48;;
69511;SDS011;56709;52.036;4.644;2022-08-19T02:13:44;32.28;;;17.05;;
69511;SDS011;56709;52.036;4.644;2022-08-19T02:16:09;29.05;;;17.17;;
69511;SDS011;56709;52.036;4.644;2022-08-19T02:18:35;23.80;;;14.48;;
69511;SDS011;56709;52.036;4.644;2022-08-19T02:21:00;22.38;;;13.85;;
69511;SDS011;56709;52.036;4.644;2022-08-19T02:23:25;25.17;;;13.27;;
69511;SDS011;56709;52.036;4.644;2022-08-19T02:25:52;23.25;;;12.98;;
69511;SDS011;56709;52.036;4.644;2022-08-19T02:28:17;20.08;;;13.50;;
69511;SDS011;56709;52.036;4.644;2022-08-19T02:30:42;24.92;;;14.05;;
69511;SDS011;56709;52.036;4.644;2022-08-19T02:33:08;20.60;;;11.27;;
69511;SDS011;56709;52.036;4.644;2022-08-19T02:35:33;20.67;;;12.63;;
69511;SDS011;56709;52.036;4.644;2022-08-19T02:37:59;21.70;;;13.00;;
69511;SDS011;56709;52.036;4.644;2022-08-19T02:40:50;19.92;;;12.48;;
69511;SDS011;56709;52.036;4.644;2022-08-19T02:43:21;24.50;;;12.68;;
69511;SDS011;56709;52.036;4.644;2022-08-19T02:45:47;22.48;;;12.75;;
69511;SDS011;56709;52.036;4.644;2022-08-19T02:48:17;22.20;;;13.35;;
69511;SDS011;56709;52.036;4.644;2022-08-19T02:50:46;20.27;;;13.68;;
69511;SDS011;56709;52.036;4.644;2022-08-19T02:53:12;21.75;;;12.55;;
69511;SDS011;56709;52.036;4.644;2022-08-19T02:55:42;22.00;;;12.55;;
69511;SDS011;56709;52.036;4.644;2022-08-19T02:58:09;33.63;;;17.08;;
69511;SDS011;56709;52.036;4.644;2022-08-19T03:00:34;31.92;;;16.17;;
69511;SDS011;56709;52.036;4.644;2022-08-19T03:03:00;42.55;;;20.00;;
69511;SDS011;56709;52.036;4.644;2022-08-19T03:05:26;44.45;;;21.98;;
69511;SDS011;56709;52.036;4.644;2022-08-19T03:07:52;60.08;;;24.08;;
69511;SDS011;56709;52.036;4.644;2022-08-19T03:10:18;47.25;;;23.10;;
69511;SDS011;56709;52.036;4.644;2022-08-19T03:12:43;47.55;;;22.17;;
69511;SDS011;56709;52.036;4.644;2022-08-19T03:15:10;40.88;;;19.40;;
69511;SDS011;56709;52.036;4.644;2022-08-19T03:17:35;36.85;;;19.52;;
69511;SDS011;56709;52.036;4.644;2022-08-19T03:20:01;36.38;;;19.05;;
69511;SDS011;56709;52.036;4.644;2022-08-19T03:22:27;38.05;;;18.40;;
69511;SDS011;56709;52.036;4.644;2022-08-19T03:24:55;37.45;;;18.58;;
69511;SDS011;56709;52.036;4.644;2022-08-19T03:27:20;32.22;;;16.35;;
69511;SDS011;56709;52.036;4.644;2022-08-19T03:29:46;48.97;;;22.63;;
69511;SDS011;56709;52.036;4.644;2022-08-19T03:32:11;41.08;;;19.73;;
69511;SDS011;56709;52.036;4.644;2022-08-19T03:34:37;47.53;;;23.27;;
69511;SDS011;56709;52.036;4.644;2022-08-19T03:37:04;44.60;;;21.63;;
69511;SDS011;56709;52.036;4.644;2022-08-19T03:39:32;73.55;;;29.23;;
69511;SDS011;56709;52.036;4.644;2022-08-19T03:41:57;66.55;;;28.73;;
69511;SDS011;56709;52.036;4.644;2022-08-19T03:44:25;61.30;;;25.20;;
69511;SDS011;56709;52.036;4.644;2022-08-19T03:46:54;55.30;;;25.10;;
69511;SDS011;56709;52.036;4.644;2022-08-19T03:49:21;53.97;;;25.52;;
69511;SDS011;56709;52.036;4.644;2022-08-19T03:51:49;79.88;;;30.23;;
69511;SDS011;56709;52.036;4.644;2022-08-19T03:54:16;73.93;;;28.83;;
69511;SDS011;56709;52.036;4.644;2022-08-19T03:56:44;55.97;;;24.55;;
69511;SDS011;56709;52.036;4.644;2022-08-19T03:59:13;96.00;;;33.03;;
69511;SDS011;56709;52.036;4.644;2022-08-19T04:01:41;90.22;;;33.65;;
69511;SDS011;56709;52.036;4.644;2022-08-19T04:04:06;78.38;;;29.83;;
69511;SDS011;56709;52.036;4.644;2022-08-19T04:06:33;92.82;;;33.53;;
69511;SDS011;56709;52.036;4.644;2022-08-19T04:09:00;86.15;;;33.88;;
69511;SDS011;56709;52.036;4.644;2022-08-19T04:13:56;97.97;;;34.60;;
69511;SDS011;56709;52.036;4.644;2022-08-19T04:16:24;88.38;;;31.33;;
69511;SDS011;56709;52.036;4.644;2022-08-19T04:18:54;65.68;;;27.55;;
69511;SDS011;56709;52.036;4.644;2022-08-19T04:21:22;77.10;;;30.73;;
69511;SDS011;56709;52.036;4.644;2022-08-19T04:23:49;88.45;;;30.25;;
69511;SDS011;56709;52.036;4.644;2022-08-19T04:26:20;82.00;;;30.50;;
69511;SDS011;56709;52.036;4.644;2022-08-19T04:28:48;68.45;;;26.70;;
69511;SDS011;56709;52.036;4.644;2022-08-19T04:31:14;72.95;;;29.98;;
69511;SDS011;56709;52.036;4.644;2022-08-19T04:33:41;86.43;;;32.67;;
69511;SDS011;56709;52.036;4.644;2022-08-19T04:36:06;82.72;;;31.58;;
69511;SDS011;56709;52.036;4.644;2022-08-19T04:38:32;98.28;;;35.45;;
69511;SDS011;56709;52.036;4.644;2022-08-19T04:40:58;101.03;;;36.97;;
69511;SDS011;56709;52.036;4.644;2022-08-19T04:43:42;105.50;;;37.78;;
69511;SDS011;56709;52.036;4.644;2022-08-19T04:46:14;117.78;;;37.70;;
69511;SDS011;56709;52.036;4.644;2022-08-19T04:48:39;134.45;;;40.15;;
69511;SDS011;56709;52.036;4.644;2022-08-19T04:51:06;137.50;;;42.10;;
69511;SDS011;56709;52.036;4.644;2022-08-19T04:53:34;129.52;;;43.33;;
69511;SDS011;56709;52.036;4.644;2022-08-19T04:56:05;138.90;;;44.30;;
69511;SDS011;56709;52.036;4.644;2022-08-19T04:58:35;128.68;;;42.28;;
69511;SDS011;56709;52.036;4.644;2022-08-19T05:01:01;135.55;;;46.53;;
69511;SDS011;56709;52.036;4.644;2022-08-19T05:03:26;138.38;;;44.42;;
69511;SDS011;56709;52.036;4.644;2022-08-19T05:05:56;135.07;;;43.88;;
69511;SDS011;56709;52.036;4.644;2022-08-19T05:08:21;131.50;;;42.38;;
69511;SDS011;56709;52.036;4.644;2022-08-19T05:10:48;125.00;;;41.83;;
69511;SDS011;56709;52.036;4.644;2022-08-19T05:13:16;119.88;;;38.35;;
69511;SDS011;56709;52.036;4.644;2022-08-19T05:15:43;99.25;;;36.38;;
69511;SDS011;56709;52.036;4.644;2022-08-19T05:18:08;101.03;;;36.90;;
69511;SDS011;56709;52.036;4.644;2022-08-19T05:20:52;89.55;;;35.33;;
69511;SDS011;56709;52.036;4.644;2022-08-19T05:23:36;91.57;;;33.70;;
69511;SDS011;56709;52.036;4.644;2022-08-19T05:26:02;94.85;;;33.22;;
69511;SDS011;56709;52.036;4.644;2022-08-19T05:28:29;87.35;;;32.45;;
69511;SDS011;56709;52.036;4.644;2022-08-19T05:30:54;75.43;;;32.17;;
69511;SDS011;56709;52.036;4.644;2022-08-19T05:33:20;81.63;;;32.25;;
69511;SDS011;56709;52.036;4.644;2022-08-19T05:35:46;82.13;;;31.20;;
69511;SDS011;56709;52.036;4.644;2022-08-19T05:38:14;77.57;;;31.10;;
69511;SDS011;56709;52.036;4.644;2022-08-19T05:40:41;69.80;;;30.30;;
69511;SDS011;56709;52.036;4.644;2022-08-19T05:43:06;72.05;;;32.00;;
69511;SDS011;56709;52.036;4.644;2022-08-19T05:45:32;73.28;;;31.05;;
69511;SDS011;56709;52.036;4.644;2022-08-19T05:48:02;74.05;;;30.85;;
69511;SDS011;56709;52.036;4.644;2022-08-19T05:50:28;78.22;;;32.90;;
69511;SDS011;56709;52.036;4.644;2022-08-19T05:52:53;75.22;;;33.95;;
69511;SDS011;56709;52.036;4.644;2022-08-19T05:55:18;71.82;;;30.85;;
69511;SDS011;56709;52.036;4.644;2022-08-19T05:57:45;76.25;;;32.10;;
69511;SDS011;56709;52.036;4.644;2022-08-19T06:00:11;69.90;;;30.90;;
69511;SDS011;56709;52.036;4.644;2022-08-19T06:02:38;65.78;;;30.40;;
69511;SDS011;56709;52.036;4.644;2022-08-19T06:05:04;65.78;;;31.88;;
69511;SDS011;56709;52.036;4.644;2022-08-19T06:07:33;64.15;;;31.35;;
69511;SDS011;56709;52.036;4.644;2022-08-19T06:10:06;62.92;;;28.60;;
69511;SDS011;56709;52.036;4.644;2022-08-19T06:12:33;67.15;;;30.92;;
69511;SDS011;56709;52.036;4.644;2022-08-19T06:15:01;68.13;;;32.05;;
69511;SDS011;56709;52.036;4.644;2022-08-19T06:17:29;68.10;;;31.00;;
69511;SDS011;56709;52.036;4.644;2022-08-19T06:19:55;64.95;;;29.55;;
69511;SDS011;56709;52.036;4.644;2022-08-19T06:22:20;56.33;;;27.50;;
69511;SDS011;56709;52.036;4.644;2022-08-19T06:24:45;62.00;;;29.38;;
69511;SDS011;56709;52.036;4.644;2022-08-19T06:27:11;52.45;;;27.45;;
69511;SDS011;56709;52.036;4.644;2022-08-19T06:29:36;61.50;;;29.08;;
69511;SDS011;56709;52.036;4.644;2022-08-19T06:32:02;58.00;;;28.85;;
69511;SDS011;56709;52.036;4.644;2022-08-19T06:34:29;59.20;;;28.50;;
69511;SDS011;56709;52.036;4.644;2022-08-19T06:36:57;55.67;;;28.92;;
69511;SDS011;56709;52.036;4.644;2022-08-19T06:39:27;56.67;;;27.77;;
69511;SDS011;56709;52.036;4.644;2022-08-19T06:41:55;56.00;;;27.98;;
69511;SDS011;56709;52.036;4.644;2022-08-19T06:44:22;49.20;;;26.45;;
69511;SDS011;56709;52.036;4.644;2022-08-19T06:46:50;48.38;;;26.60;;
69511;SDS011;56709;52.036;4.644;2022-08-19T06:49:16;54.15;;;28.13;;
69511;SDS011;56709;52.036;4.644;2022-08-19T06:51:43;51.03;;;27.05;;
69511;SDS011;56709;52.036;4.644;2022-08-19T06:54:09;52.92;;;27.15;;
69511;SDS011;56709;52.036;4.644;2022-08-19T06:56:35;49.38;;;25.77;;
69511;SDS011;56709;52.036;4.644;2022-08-19T06:59:03;50.17;;;26.27;;
69511;SDS011;56709;52.036;4.644;2022-08-19T07:01:33;47.22;;;25.60;;
69511;SDS011;56709;52.036;4.644;2022-08-19T07:04:06;43.63;;;24.42;;
69511;SDS011;56709;52.036;4.644;2022-08-19T07:06:33;47.53;;;24.70;;
69511;SDS011;56709;52.036;4.644;2022-08-19T07:08:59;46.33;;;24.33;;
69511;SDS011;56709;52.036;4.644;2022-08-19T07:11:24;47.22;;;24.60;;
69511;SDS011;56709;52.036;4.644;2022-08-19T07:13:50;37.42;;;23.55;;
69511;SDS011;56709;52.036;4.644;2022-08-19T07:16:16;40.33;;;22.85;;
69511;SDS011;56709;52.036;4.644;2022-08-19T07:18:44;40.33;;;23.63;;
69511;SDS011;56709;52.036;4.644;2022-08-19T07:21:15;41.15;;;21.73;;
69511;SDS011;56709;52.036;4.644;2022-08-19T07:23:42;40.70;;;23.98;;
69511;SDS011;56709;52.036;4.644;2022-08-19T07:26:16;41.20;;;21.73;;
69511;SDS011;56709;52.036;4.644;2022-08-19T07:28:52;43.15;;;23.52;;
69511;SDS011;56709;52.036;4.644;2022-08-19T07:31:20;38.05;;;22.25;;
69511;SDS011;56709;52.036;4.644;2022-08-19T07:33:48;40.63;;;22.45;;
69511;SDS011;56709;52.036;4.644;2022-08-19T07:36:15;36.80;;;22.60;;
69511;SDS011;56709;52.036;4.644;2022-08-19T07:38:43;38.78;;;21.73;;
69511;SDS011;56709;52.036;4.644;2022-08-19T07:41:11;35.53;;;20.95;;
69511;SDS011;56709;52.036;4.644;2022-08-19T07:43:38;39.88;;;22.83;;
69511;SDS011;56709;52.036;4.644;2022-08-19T07:46:04;36.65;;;23.13;;
69511;SDS011;56709;52.036;4.644;2022-08-19T07:48:30;32.40;;;22.50;;
69511;SDS011;56709;52.036;4.644;2022-08-19T07:50:56;39.27;;;23.27;;
69511;SDS011;56709;52.036;4.644;2022-08-19T07:53:24;37.88;;;23.00;;
69511;SDS011;56709;52.036;4.644;2022-08-19T07:55:50;35.60;;;23.73;;
69511;SDS011;56709;52.036;4.644;2022-08-19T07:58:17;32.65;;;23.05;;
69511;SDS011;56709;52.036;4.644;2022-08-19T08:00:45;35.38;;;21.92;;
69511;SDS011;56709;52.036;4.644;2022-08-19T08:03:13;37.55;;;23.52;;
69511;SDS011;56709;52.036;4.644;2022-08-19T08:05:40;37.38;;;22.15;;
69511;SDS011;56709;52.036;4.644;2022-08-19T08:08:24;31.55;;;20.25;;
69511;SDS011;56709;52.036;4.644;2022-08-19T08:10:56;31.33;;;20.55;;
69511;SDS011;56709;52.036;4.644;2022-08-19T08:13:22;34.60;;;21.63;;
69511;SDS011;56709;52.036;4.644;2022-08-19T08:15:48;37.22;;;20.85;;
69511;SDS011;56709;52.036;4.644;2022-08-19T08:18:14;28.20;;;18.13;;
69511;SDS011;56709;52.036;4.644;2022-08-19T08:20:40;27.23;;;18.10;;
69511;SDS011;56709;52.036;4.644;2022-08-19T08:23:05;32.70;;;19.30;;
69511;SDS011;56709;52.036;4.644;2022-08-19T08:25:49;32.30;;;18.80;;
69511;SDS011;56709;52.036;4.644;2022-08-19T08:28:15;37.80;;;20.13;;
69511;SDS011;56709;52.036;4.644;2022-08-19T08:30:41;30.65;;;20.63;;
69511;SDS011;56709;52.036;4.644;2022-08-19T08:35:33;37.57;;;20.67;;
69511;SDS011;56709;52.036;4.644;2022-08-19T08:37:59;34.20;;;19.70;;
69511;SDS011;56709;52.036;4.644;2022-08-19T08:43:27;36.35;;;22.50;;
69511;SDS011;56709;52.036;4.644;2022-08-19T08:46:05;35.80;;;22.92;;
69511;SDS011;56709;52.036;4.644;2022-08-19T08:48:40;37.58;;;24.42;;
69511;SDS011;56709;52.036;4.644;2022-08-19T08:51:16;39.20;;;23.75;;
69511;SDS011;56709;52.036;4.644;2022-08-19T08:53:46;38.10;;;22.73;;
69511;SDS011;56709;52.036;4.644;2022-08-19T08:56:14;37.25;;;21.75;;
69511;SDS011;56709;52.036;4.644;2022-08-19T09:01:18;34.88;;;20.27;;
69511;SDS011;56709;52.036;4.644;2022-08-19T09:03:44;33.03;;;20.37;;
69511;SDS011;56709;52.036;4.644;2022-08-19T09:06:32;31.40;;;20.47;;
69511;SDS011;56709;52.036;4.644;2022-08-19T09:09:17;33.92;;;19.90;;
69511;SDS011;56709;52.036;4.644;2022-08-19T09:11:53;32.55;;;20.50;;
69511;SDS011;56709;52.036;4.644;2022-08-19T09:17:06;32.03;;;19.55;;
69511;SDS011;56709;52.036;4.644;2022-08-19T09:19:51;34.40;;;19.05;;
69511;SDS011;56709;52.036;4.644;2022-08-19T09:22:22;35.00;;;19.83;;
69511;SDS011;56709;52.036;4.644;2022-08-19T09:24:49;32.40;;;19.77;;
69511;SDS011;56709;52.036;4.644;2022-08-19T09:27:17;29.60;;;18.77;;
69511;SDS011;56709;52.036;4.644;2022-08-19T09:29:43;24.85;;;16.50;;
69511;SDS011;56709;52.036;4.644;2022-08-19T09:32:08;27.50;;;16.17;;
69511;SDS011;56709;52.036;4.644;2022-08-19T09:34:34;19.33;;;14.23;;
69511;SDS011;56709;52.036;4.644;2022-08-19T09:36:59;24.07;;;14.23;;
69511;SDS011;56709;52.036;4.644;2022-08-19T09:39:25;20.60;;;13.70;;
69511;SDS011;56709;52.036;4.644;2022-08-19T09:41:50;22.50;;;14.83;;
69511;SDS011;56709;52.036;4.644;2022-08-19T09:44:16;23.73;;;16.20;;
69511;SDS011;56709;52.036;4.644;2022-08-19T09:46:42;21.48;;;15.73;;
69511;SDS011;56709;52.036;4.644;2022-08-19T09:49:07;22.87;;;14.07;;
69511;SDS011;56709;52.036;4.644;2022-08-19T09:51:33;20.90;;;14.40;;
69511;SDS011;56709;52.036;4.644;2022-08-19T09:53:59;22.00;;;15.00;;
69511;SDS011;56709;52.036;4.644;2022-08-19T09:56:27;23.75;;;15.65;;
69511;SDS011;56709;52.036;4.644;2022-08-19T09:58:53;20.58;;;14.27;;
69511;SDS011;56709;52.036;4.644;2022-08-19T10:01:20;19.20;;;13.83;;
69511;SDS011;56709;52.036;4.644;2022-08-19T10:03:50;17.75;;;12.45;;
69511;SDS011;56709;52.036;4.644;2022-08-19T10:06:17;17.42;;;12.18;;
69511;SDS011;56709;52.036;4.644;2022-08-19T10:08:43;23.30;;;13.00;;
69511;SDS011;56709;52.036;4.644;2022-08-19T10:11:09;25.45;;;12.98;;
69511;SDS011;56709;52.036;4.644;2022-08-19T10:13:34;25.77;;;13.07;;
69511;SDS011;56709;52.036;4.644;2022-08-19T10:16:05;18.53;;;12.20;;
69511;SDS011;56709;52.036;4.644;2022-08-19T10:18:33;14.52;;;9.98;;
69511;SDS011;56709;52.036;4.644;2022-08-19T10:21:06;14.75;;;10.02;;
69511;SDS011;56709;52.036;4.644;2022-08-19T10:23:33;16.60;;;9.02;;
69511;SDS011;56709;52.036;4.644;2022-08-19T10:26:00;14.32;;;7.32;;
69511;SDS011;56709;52.036;4.644;2022-08-19T10:28:25;10.83;;;7.13;;
69511;SDS011;56709;52.036;4.644;2022-08-19T10:30:51;13.27;;;6.30;;
69511;SDS011;56709;52.036;4.644;2022-08-19T10:33:17;13.97;;;6.50;;
69511;SDS011;56709;52.036;4.644;2022-08-19T10:35:42;12.00;;;6.10;;
69511;SDS011;56709;52.036;4.644;2022-08-19T10:38:08;8.60;;;5.50;;
69511;SDS011;56709;52.036;4.644;2022-08-19T10:40:33;11.70;;;5.90;;
69511;SDS011;56709;52.036;4.644;2022-08-19T10:42:59;9.68;;;5.30;;
69511;SDS011;56709;52.036;4.644;2022-08-19T10:45:25;7.73;;;3.73;;
69511;SDS011;56709;52.036;4.644;2022-08-19T10:47:54;6.45;;;3.55;;
69511;SDS011;56709;52.036;4.644;2022-08-19T10:50:20;5.40;;;3.33;;
69511;SDS011;56709;52.036;4.644;2022-08-19T10:53:05;6.57;;;3.88;;
69511;SDS011;56709;52.036;4.644;2022-08-19T10:55:33;7.00;;;4.18;;
69511;SDS011;56709;52.036;4.644;2022-08-19T10:58:19;9.35;;;4.80;;
69511;SDS011;56709;52.036;4.644;2022-08-19T11:00:54;7.47;;;4.72;;
69511;SDS011;56709;52.036;4.644;2022-08-19T11:03:21;8.85;;;5.32;;
69511;SDS011;56709;52.036;4.644;2022-08-19T11:05:46;9.77;;;5.00;;
69511;SDS011;56709;52.036;4.644;2022-08-19T11:08:13;7.22;;;4.32;;
69511;SDS011;56709;52.036;4.644;2022-08-19T11:10:42;6.27;;;3.37;;
69511;SDS011;56709;52.036;4.644;2022-08-19T11:13:07;6.28;;;3.38;;
69511;SDS011;56709;52.036;4.644;2022-08-19T11:15:33;6.63;;;3.00;;
69511;SDS011;56709;52.036;4.644;2022-08-19T11:17:58;5.07;;;2.60;;
69511;SDS011;56709;52.036;4.644;2022-08-19T11:20:24;6.20;;;2.80;;
69511;SDS011;56709;52.036;4.644;2022-08-19T11:22:51;6.20;;;2.67;;
69511;SDS011;56709;52.036;4.644;2022-08-19T11:25:17;6.35;;;2.65;;
69511;SDS011;56709;52.036;4.644;2022-08-19T11:27:42;3.93;;;2.80;;
69511;SDS011;56709;52.036;4.644;2022-08-19T11:30:10;7.63;;;3.40;;
69511;SDS011;56709;52.036;4.644;2022-08-19T11:32:36;7.28;;;2.58;;
69511;SDS011;56709;52.036;4.644;2022-08-19T11:35:01;7.73;;;2.83;;
69511;SDS011;56709;52.036;4.644;2022-08-19T11:37:27;4.57;;;2.40;;
69511;SDS011;56709;52.036;4.644;2022-08-19T11:39:52;6.63;;;2.83;;
69511;SDS011;56709;52.036;4.644;2022-08-19T11:42:18;4.87;;;2.57;;
69511;SDS011;56709;52.036;4.644;2022-08-19T11:45:02;4.55;;;2.50;;
69511;SDS011;56709;52.036;4.644;2022-08-19T11:47:29;4.70;;;2.20;;
69511;SDS011;56709;52.036;4.644;2022-08-19T11:49:55;8.82;;;2.60;;
69511;SDS011;56709;52.036;4.644;2022-08-19T11:52:20;12.80;;;2.53;;
69511;SDS011;56709;52.036;4.644;2022-08-19T11:54:46;4.57;;;2.33;;
69511;SDS011;56709;52.036;4.644;2022-08-19T11:57:11;4.87;;;2.40;;
69511;SDS011;56709;52.036;4.644;2022-08-19T11:59:37;5.03;;;2.37;;
69511;SDS011;56709;52.036;4.644;2022-08-19T12:02:02;4.93;;;2.30;;
69511;SDS011;56709;52.036;4.644;2022-08-19T12:04:28;2.43;;;1.80;;
69511;SDS011;56709;52.036;4.644;2022-08-19T12:06:53;4.10;;;2.10;;
69511;SDS011;56709;52.036;4.644;2022-08-19T12:09:19;2.80;;;1.50;;
69511;SDS011;56709;52.036;4.644;2022-08-19T12:11:47;2.92;;;1.60;;
69511;SDS011;56709;52.036;4.644;2022-08-19T12:14:12;4.90;;;1.70;;
69511;SDS011;56709;52.036;4.644;2022-08-19T12:16:38;2.25;;;1.60;;
69511;SDS011;56709;52.036;4.644;2022-08-19T12:19:07;4.35;;;1.75;;
69511;SDS011;56709;52.036;4.644;2022-08-19T12:21:33;5.40;;;1.98;;
69511;SDS011;56709;52.036;4.644;2022-08-19T12:23:59;4.45;;;1.73;;
69511;SDS011;56709;52.036;4.644;2022-08-19T12:26:26;2.90;;;1.80;;
69511;SDS011;56709;52.036;4.644;2022-08-19T12:28:53;3.10;;;1.70;;
69511;SDS011;56709;52.036;4.644;2022-08-19T12:31:18;4.40;;;2.30;;
69511;SDS011;56709;52.036;4.644;2022-08-19T12:33:44;3.45;;;1.90;;
69511;SDS011;56709;52.036;4.644;2022-08-19T12:36:11;3.35;;;1.63;;
69511;SDS011;56709;52.036;4.644;2022-08-19T12:38:38;4.70;;;1.80;;
69511;SDS011;56709;52.036;4.644;2022-08-19T12:41:04;3.38;;;2.05;;
69511;SDS011;56709;52.036;4.644;2022-08-19T12:43:32;3.53;;;1.88;;
69511;SDS011;56709;52.036;4.644;2022-08-19T12:45:58;2.13;;;1.45;;
69511;SDS011;56709;52.036;4.644;2022-08-19T12:48:23;4.33;;;1.70;;
69511;SDS011;56709;52.036;4.644;2022-08-19T12:50:49;7.30;;;2.30;;
69511;SDS011;56709;52.036;4.644;2022-08-19T12:53:14;4.27;;;1.60;;
69511;SDS011;56709;52.036;4.644;2022-08-19T12:55:40;3.72;;;1.80;;
69511;SDS011;56709;52.036;4.644;2022-08-19T12:58:07;3.88;;;1.77;;
69511;SDS011;56709;52.036;4.644;2022-08-19T13:00:33;2.93;;;1.60;;
69511;SDS011;56709;52.036;4.644;2022-08-19T13:02:59;2.87;;;1.30;;
69511;SDS011;56709;52.036;4.644;2022-08-19T13:05:26;6.55;;;1.90;;
69511;SDS011;56709;52.036;4.644;2022-08-19T13:07:54;4.00;;;1.88;;
69511;SDS011;56709;52.036;4.644;2022-08-19T13:10:22;3.25;;;1.70;;
69511;SDS011;56709;52.036;4.644;2022-08-19T13:12:50;4.65;;;2.10;;
69511;SDS011;56709;52.036;4.644;2022-08-19T13:15:16;2.65;;;1.80;;
69511;SDS011;56709;52.036;4.644;2022-08-19T13:17:46;5.65;;;2.83;;
69511;SDS011;56709;52.036;4.644;2022-08-19T13:20:14;4.78;;;2.00;;
69511;SDS011;56709;52.036;4.644;2022-08-19T13:22:40;5.55;;;2.10;;
69511;SDS011;56709;52.036;4.644;2022-08-19T13:25:06;4.87;;;2.10;;
69511;SDS011;56709;52.036;4.644;2022-08-19T13:27:32;2.85;;;1.90;;
69511;SDS011;56709;52.036;4.644;2022-08-19T13:29:57;5.00;;;2.23;;
69511;SDS011;56709;52.036;4.644;2022-08-19T13:32:41;4.15;;;2.17;;
69511;SDS011;56709;52.036;4.644;2022-08-19T13:35:25;3.30;;;1.88;;
69511;SDS011;56709;52.036;4.644;2022-08-19T13:37:51;7.20;;;2.60;;
69511;SDS011;56709;52.036;4.644;2022-08-19T13:40:18;4.53;;;2.30;;
69511;SDS011;56709;52.036;4.644;2022-08-19T13:42:47;4.95;;;2.30;;
69511;SDS011;56709;52.036;4.644;2022-08-19T13:45:15;7.80;;;2.60;;
69511;SDS011;56709;52.036;4.644;2022-08-19T13:47:44;4.55;;;2.17;;
69511;SDS011;56709;52.036;4.644;2022-08-19T13:50:11;4.35;;;2.50;;
69511;SDS011;56709;52.036;4.644;2022-08-19T13:52:38;6.80;;;2.53;;
69511;SDS011;56709;52.036;4.644;2022-08-19T13:55:04;6.68;;;2.85;;
69511;SDS011;56709;52.036;4.644;2022-08-19T13:57:30;5.25;;;2.42;;
69511;SDS011;56709;52.036;4.644;2022-08-19T13:59:55;4.07;;;2.50;;
69511;SDS011;56709;52.036;4.644;2022-08-19T14:02:22;6.53;;;2.85;;
69511;SDS011;56709;52.036;4.644;2022-08-19T14:04:48;4.63;;;2.63;;
69511;SDS011;56709;52.036;4.644;2022-08-19T14:07:13;5.57;;;2.87;;
69511;SDS011;56709;52.036;4.644;2022-08-19T14:09:39;5.03;;;2.73;;
69511;SDS011;56709;52.036;4.644;2022-08-19T14:12:04;5.27;;;2.50;;
69511;SDS011;56709;52.036;4.644;2022-08-19T14:14:30;3.43;;;2.20;;
69511;SDS011;56709;52.036;4.644;2022-08-19T14:16:55;3.03;;;2.03;;
69511;SDS011;56709;52.036;4.644;2022-08-19T14:19:20;4.13;;;2.20;;
69511;SDS011;56709;52.036;4.644;2022-08-19T14:21:46;2.63;;;1.80;;
69511;SDS011;56709;52.036;4.644;2022-08-19T14:24:12;3.03;;;1.53;;
69511;SDS011;56709;52.036;4.644;2022-08-19T14:26:37;5.60;;;2.17;;
69511;SDS011;56709;52.036;4.644;2022-08-19T14:29:03;4.07;;;1.60;;
69511;SDS011;56709;52.036;4.644;2022-08-19T14:31:28;2.73;;;1.70;;
69511;SDS011;56709;52.036;4.644;2022-08-19T14:33:54;3.17;;;1.70;;
69511;SDS011;56709;52.036;4.644;2022-08-19T14:36:19;3.10;;;1.53;;
69511;SDS011;56709;52.036;4.644;2022-08-19T14:38:45;4.53;;;1.90;;
69511;SDS011;56709;52.036;4.644;2022-08-19T14:41:16;3.30;;;1.73;;
69511;SDS011;56709;52.036;4.644;2022-08-19T14:43:44;3.35;;;1.70;;
69511;SDS011;56709;52.036;4.644;2022-08-19T14:46:12;2.00;;;1.80;;